createdAt,value
2019-03-22T00:00:36.023Z,94.60
2019-03-22T00:10:42.677Z,94.50
2019-03-22T00:20:48.441Z,95.10
2019-03-22T00:30:53.973Z,95.30
2019-03-22T00:40:59.487Z,95.90
2019-03-22T00:51:05.010Z,96.90
2019-03-22T01:01:10.698Z,97.20
2019-03-22T01:11:16.474Z,97.50
2019-03-22T01:21:21.997Z,97.70
2019-03-22T01:31:27.634Z,98.30
2019-03-22T01:41:33.226Z,98.40
2019-03-22T01:51:38.792Z,99.10
2019-03-22T02:01:44.282Z,99.50
2019-03-22T02:11:49.793Z,99.20
2019-03-22T02:21:55.435Z,98.70
2019-03-22T02:32:01.072Z,99.00
2019-03-22T02:42:06.680Z,98.00
2019-03-22T02:52:12.285Z,98.00
2019-03-22T03:02:17.790Z,97.70
2019-03-22T03:12:23.370Z,97.80
2019-03-22T03:22:28.936Z,97.30
2019-03-22T03:32:34.571Z,97.10
2019-03-22T03:42:40.195Z,97.20
2019-03-22T03:52:45.819Z,97.20
2019-03-22T04:02:51.437Z,97.40
2019-03-22T04:12:57.057Z,97.00
2019-03-22T04:23:02.763Z,96.90
2019-03-22T04:33:09.756Z,97.10
2019-03-22T04:43:15.329Z,97.20
2019-03-22T04:53:24.138Z,97.60
2019-03-22T05:03:30.716Z,97.20
2019-03-22T05:13:38.048Z,97.10
2019-03-22T05:23:44.986Z,96.90
2019-03-22T05:33:50.540Z,96.80
2019-03-22T05:44:02.457Z,96.30
2019-03-22T05:54:07.959Z,95.80
2019-03-22T06:04:13.597Z,96.20
2019-03-22T06:14:19.210Z,96.60
2019-03-22T06:24:24.756Z,96.80
2019-03-22T06:34:30.402Z,95.10
2019-03-22T06:44:36.611Z,95.40
2019-03-22T06:54:42.155Z,94.50
2019-03-22T07:04:47.716Z,93.50
2019-03-22T07:15:00.379Z,92.50
2019-03-22T07:25:07.360Z,92.20
2019-03-22T07:35:12.983Z,89.90
2019-03-22T07:45:18.578Z,90.60
2019-03-22T07:55:24.190Z,90.20
2019-03-22T08:05:36.755Z,90.80
2019-03-22T08:15:43.434Z,91.00
2019-03-22T08:25:49.313Z,91.80
2019-03-22T08:35:55.175Z,92.40
2019-03-22T08:46:00.811Z,92.50
2019-03-22T08:56:07.146Z,92.90
2019-03-22T09:06:12.832Z,93.80
2019-03-22T09:16:18.523Z,93.90
2019-03-22T09:26:24.137Z,94.20
2019-03-22T09:36:29.735Z,94.20
2019-03-22T09:46:35.455Z,93.70
2019-03-22T09:56:46.969Z,93.80
2019-03-22T10:06:48.376Z,93.40
2019-03-22T10:16:53.932Z,93.70
2019-03-22T10:26:59.521Z,93.50
2019-03-22T10:37:05.187Z,92.70
2019-03-22T10:47:10.820Z,90.20
2019-03-22T10:57:17.432Z,90.60
2019-03-22T11:07:22.960Z,90.70
2019-03-22T11:17:28.531Z,91.60
2019-03-22T11:27:34.075Z,90.80
2019-03-22T11:48:22.001Z,92.30
2019-03-22T11:58:27.556Z,92.30
2019-03-22T12:08:33.159Z,91.50
2019-03-22T12:18:38.659Z,91.90
2019-03-22T12:28:44.186Z,92.00
2019-03-22T12:48:54.760Z,91.50
2019-03-22T12:59:00.336Z,91.50
2019-03-22T13:09:08.325Z,90.60
2019-03-22T13:19:13.839Z,91.00
2019-03-22T13:29:19.437Z,90.50
2019-03-22T13:39:25.034Z,90.50
2019-03-22T13:49:30.566Z,90.80
2019-03-22T13:59:36.122Z,91.00
2019-03-22T14:09:41.676Z,90.40
2019-03-22T14:19:55.789Z,90.00
2019-03-22T14:30:02.387Z,90.00
2019-03-22T14:40:15.573Z,90.40
2019-03-22T14:50:27.362Z,90.80
2019-03-22T15:00:43.237Z,91.10
2019-03-22T15:10:48.761Z,91.40
2019-03-22T15:21:14.068Z,91.40
2019-03-22T15:31:39.015Z,92.00
2019-03-22T15:41:50.092Z,92.00
2019-03-22T15:51:55.574Z,92.30
2019-03-22T16:02:01.114Z,92.90
2019-03-22T16:12:06.861Z,93.10
2019-03-22T16:22:12.489Z,93.50
2019-03-22T16:42:55.235Z,94.10
2019-03-22T16:53:06.358Z,94.50
2019-03-22T17:03:11.957Z,94.70
2019-03-22T17:13:18.565Z,95.00
2019-03-22T17:23:24.320Z,95.30
2019-03-22T17:33:30.188Z,95.50
2019-03-22T17:54:26.710Z,95.50
2019-03-22T18:04:38.117Z,95.50
2019-03-22T18:14:44.147Z,95.90
2019-03-22T18:24:56.535Z,96.10
2019-03-22T18:35:08.718Z,96.00
2019-03-22T18:45:29.721Z,95.90
2019-03-22T18:55:36.399Z,96.40
2019-03-22T19:05:44.011Z,96.30
2019-03-22T19:15:51.205Z,96.50
2019-03-22T19:26:00.739Z,96.90
2019-03-22T19:36:10.735Z,97.10
2019-03-22T19:46:18.647Z,97.20
2019-03-22T19:56:26.165Z,97.70
2019-03-22T20:06:35.253Z,97.40
2019-03-22T20:16:41.330Z,97.60
2019-03-22T20:26:48.676Z,97.50
2019-03-22T20:36:54.920Z,97.70
2019-03-22T20:47:02.681Z,97.80
2019-03-22T20:57:09.714Z,98.00
2019-03-22T21:07:16.390Z,98.10
2019-03-22T21:17:22.435Z,98.10
2019-03-22T21:27:29.516Z,98.30
2019-03-22T21:37:35.298Z,98.30
2019-03-22T21:47:41.295Z,98.50
2019-03-22T21:57:46.974Z,98.60
2019-03-22T22:07:52.761Z,98.40
2019-03-22T22:17:58.412Z,98.90
2019-03-22T22:28:04.105Z,98.90
2019-03-22T22:38:09.669Z,99.10
2019-03-22T22:48:15.466Z,98.80
2019-03-22T22:58:21.024Z,99.30
2019-03-22T23:08:26.705Z,98.90
2019-03-22T23:18:32.319Z,99.40
2019-03-22T23:28:39.955Z,99.50
2019-03-22T23:38:45.687Z,99.70
2019-03-22T23:48:51.385Z,99.80
2019-03-22T23:58:56.889Z,99.40
